sensor_id;sensor_type;location;lat;lon;timestamp;pressure;altitude;pressure_sealevel;temperature;humidity
12182;BME280;6154;51.550;12.138;2022-11-15T00:02:00;100361.12;;;12.21;61.64
12182;BME280;6154;51.550;12.138;2022-11-15T00:05:08;100362.19;;;12.18;61.65
12182;BME280;6154;51.550;12.138;2022-11-15T00:08:14;100360.47;;;12.17;61.83
12182;BME280;6154;51.550;12.138;2022-11-15T00:11:21;100362.09;;;12.20;61.73
12182;BME280;6154;51.550;12.138;2022-11-15T00:14:26;100365.59;;;12.20;61.66
12182;BME280;6154;51.550;12.138;2022-11-15T00:17:32;100361.91;;;12.23;61.28
12182;BME280;6154;51.550;12.138;2022-11-15T00:20:38;100360.28;;;12.20;61.12
12182;BME280;6154;51.550;12.138;2022-11-15T00:23:43;100356.88;;;12.18;61.08
12182;BME280;6154;51.550;12.138;2022-11-15T00:26:50;100342.00;;;12.16;61.22
12182;BME280;6154;51.550;12.138;2022-11-15T00:29:56;100350.19;;;12.13;61.37
12182;BME280;6154;51.550;12.138;2022-11-15T00:33:02;100350.25;;;12.11;61.35
12182;BME280;6154;51.550;12.138;2022-11-15T00:36:09;100343.25;;;12.10;61.33
12182;BME280;6154;51.550;12.138;2022-11-15T00:39:15;100344.88;;;12.13;61.21
12182;BME280;6154;51.550;12.138;2022-11-15T00:42:22;100336.91;;;12.13;61.12
12182;BME280;6154;51.550;12.138;2022-11-15T00:45:27;100346.09;;;12.07;61.29
12182;BME280;6154;51.550;12.138;2022-11-15T00:48:32;100338.97;;;12.07;61.43
12182;BME280;6154;51.550;12.138;2022-11-15T00:51:38;100334.84;;;12.03;61.63
12182;BME280;6154;51.550;12.138;2022-11-15T00:54:44;100330.28;;;12.05;61.68
12182;BME280;6154;51.550;12.138;2022-11-15T00:57:51;100337.28;;;12.06;61.74
12182;BME280;6154;51.550;12.138;2022-11-15T01:00:56;100330.28;;;12.05;61.65
12182;BME280;6154;51.550;12.138;2022-11-15T01:04:01;100325.25;;;12.15;61.63
12182;BME280;6154;51.550;12.138;2022-11-15T01:07:07;100328.16;;;12.11;61.71
12182;BME280;6154;51.550;12.138;2022-11-15T01:10:12;100334.44;;;12.09;61.92
12182;BME280;6154;51.550;12.138;2022-11-15T01:13:19;100322.88;;;12.11;62.22
12182;BME280;6154;51.550;12.138;2022-11-15T01:16:25;100316.59;;;12.12;62.18
12182;BME280;6154;51.550;12.138;2022-11-15T01:19:30;100321.00;;;12.13;62.31
12182;BME280;6154;51.550;12.138;2022-11-15T01:22:35;100318.63;;;12.08;62.60
12182;BME280;6154;51.550;12.138;2022-11-15T01:25:41;100313.09;;;12.11;62.39
12182;BME280;6154;51.550;12.138;2022-11-15T01:28:48;100301.47;;;12.14;62.25
12182;BME280;6154;51.550;12.138;2022-11-15T01:31:53;100305.81;;;12.15;62.13
12182;BME280;6154;51.550;12.138;2022-11-15T01:34:59;100306.84;;;12.12;62.07
12182;BME280;6154;51.550;12.138;2022-11-15T01:38:04;100302.31;;;12.14;61.95
12182;BME280;6154;51.550;12.138;2022-11-15T01:41:16;100312.09;;;12.14;61.74
12182;BME280;6154;51.550;12.138;2022-11-15T01:44:39;100309.59;;;12.11;61.91
12182;BME280;6154;51.550;12.138;2022-11-15T01:47:48;100318.41;;;12.11;62.16
12182;BME280;6154;51.550;12.138;2022-11-15T01:50:56;100314.06;;;12.10;61.63
12182;BME280;6154;51.550;12.138;2022-11-15T01:54:04;100312.47;;;12.07;61.51
12182;BME280;6154;51.550;12.138;2022-11-15T01:57:11;100310.75;;;12.06;61.48
12182;BME280;6154;51.550;12.138;2022-11-15T02:00:20;100307.16;;;12.07;61.42
12182;BME280;6154;51.550;12.138;2022-11-15T02:03:39;100314.38;;;12.05;61.48
12182;BME280;6154;51.550;12.138;2022-11-15T02:06:48;100311.59;;;12.07;61.41
12182;BME280;6154;51.550;12.138;2022-11-15T02:09:55;100298.63;;;12.02;61.55
12182;BME280;6154;51.550;12.138;2022-11-15T02:13:01;100296.75;;;12.04;61.83
12182;BME280;6154;51.550;12.138;2022-11-15T02:16:15;100301.09;;;12.05;61.82
12182;BME280;6154;51.550;12.138;2022-11-15T02:19:35;100291.44;;;12.04;61.93
12182;BME280;6154;51.550;12.138;2022-11-15T02:22:51;100292.41;;;12.03;61.97
12182;BME280;6154;51.550;12.138;2022-11-15T02:26:23;100282.81;;;12.01;61.87
12182;BME280;6154;51.550;12.138;2022-11-15T02:30:01;100275.16;;;11.96;62.34
12182;BME280;6154;51.550;12.138;2022-11-15T02:33:20;100277.81;;;11.96;62.65
12182;BME280;6154;51.550;12.138;2022-11-15T02:36:35;100269.28;;;11.91;62.50
12182;BME280;6154;51.550;12.138;2022-11-15T02:39:48;100267.19;;;11.96;62.47
12182;BME280;6154;51.550;12.138;2022-11-15T02:42:57;100262.66;;;11.98;62.08
12182;BME280;6154;51.550;12.138;2022-11-15T02:46:26;100255.66;;;11.97;61.90
12182;BME280;6154;51.550;12.138;2022-11-15T02:49:50;100247.88;;;11.94;61.95
12182;BME280;6154;51.550;12.138;2022-11-15T02:52:57;100246.94;;;11.95;62.07
12182;BME280;6154;51.550;12.138;2022-11-15T02:56:02;100254.78;;;11.97;62.10
12182;BME280;6154;51.550;12.138;2022-11-15T02:59:18;100247.78;;;11.96;62.07
12182;BME280;6154;51.550;12.138;2022-11-15T03:02:42;100249.59;;;11.95;62.42
12182;BME280;6154;51.550;12.138;2022-11-15T03:05:58;100251.09;;;11.99;62.38
12182;BME280;6154;51.550;12.138;2022-11-15T03:09:12;100241.44;;;11.98;62.33
12182;BME280;6154;51.550;12.138;2022-11-15T03:12:27;100242.28;;;11.99;62.32
12182;BME280;6154;51.550;12.138;2022-11-15T03:15:38;100236.69;;;12.03;62.34
12182;BME280;6154;51.550;12.138;2022-11-15T03:18:48;100236.03;;;12.00;62.48
12182;BME280;6154;51.550;12.138;2022-11-15T03:21:58;100236.50;;;12.06;62.18
12182;BME280;6154;51.550;12.138;2022-11-15T03:25:07;100242.53;;;12.08;62.13
12182;BME280;6154;51.550;12.138;2022-11-15T03:28:18;100240.75;;;12.09;62.04
12182;BME280;6154;51.550;12.138;2022-11-15T03:31:28;100246.91;;;12.09;61.91
12182;BME280;6154;51.550;12.138;2022-11-15T03:34:57;100243.28;;;12.11;62.05
12182;BME280;6154;51.550;12.138;2022-11-15T03:38:11;100245.00;;;12.12;61.88
12182;BME280;6154;51.550;12.138;2022-11-15T03:41:24;100244.06;;;12.13;61.96
12182;BME280;6154;51.550;12.138;2022-11-15T03:44:38;100253.91;;;12.11;61.90
12182;BME280;6154;51.550;12.138;2022-11-15T03:47:49;100247.09;;;12.06;62.11
12182;BME280;6154;51.550;12.138;2022-11-15T03:50:57;100242.00;;;12.03;62.09
12182;BME280;6154;51.550;12.138;2022-11-15T03:54:05;100241.78;;;12.06;62.17
12182;BME280;6154;51.550;12.138;2022-11-15T03:57:11;100241.78;;;12.06;62.12
12182;BME280;6154;51.550;12.138;2022-11-15T04:00:16;100237.34;;;12.07;62.17
12182;BME280;6154;51.550;12.138;2022-11-15T04:03:22;100239.78;;;12.10;62.03
12182;BME280;6154;51.550;12.138;2022-11-15T04:06:27;100243.28;;;12.11;62.04
12182;BME280;6154;51.550;12.138;2022-11-15T04:09:34;100241.59;;;12.09;61.94
12182;BME280;6154;51.550;12.138;2022-11-15T04:13:02;100237.44;;;12.05;62.03
12182;BME280;6154;51.550;12.138;2022-11-15T04:16:08;100231.56;;;12.00;62.11
12182;BME280;6154;51.550;12.138;2022-11-15T04:19:14;100229.12;;;11.97;62.15
12182;BME280;6154;51.550;12.138;2022-11-15T04:22:37;100235.59;;;11.93;62.22
12182;BME280;6154;51.550;12.138;2022-11-15T04:26:04;100232.94;;;11.93;62.32
12182;BME280;6154;51.550;12.138;2022-11-15T04:29:11;100233.56;;;11.97;62.21
12182;BME280;6154;51.550;12.138;2022-11-15T04:32:35;100227.22;;;11.99;62.14
12182;BME280;6154;51.550;12.138;2022-11-15T04:35:42;100232.41;;;12.01;61.99
12182;BME280;6154;51.550;12.138;2022-11-15T04:39:08;100237.06;;;11.97;61.94
12182;BME280;6154;51.550;12.138;2022-11-15T04:42:15;100231.03;;;11.95;61.99
12182;BME280;6154;51.550;12.138;2022-11-15T04:45:24;100229.34;;;11.94;61.94
12182;BME280;6154;51.550;12.138;2022-11-15T04:48:29;100228.53;;;11.92;62.03
12182;BME280;6154;51.550;12.138;2022-11-15T04:51:34;100223.25;;;11.92;62.14
12182;BME280;6154;51.550;12.138;2022-11-15T04:54:40;100219.69;;;11.93;62.04
12182;BME280;6154;51.550;12.138;2022-11-15T04:57:57;100225.91;;;11.92;62.13
12182;BME280;6154;51.550;12.138;2022-11-15T05:01:06;100224.19;;;11.91;62.63
12182;BME280;6154;51.550;12.138;2022-11-15T05:04:12;100220.53;;;11.94;62.26
12182;BME280;6154;51.550;12.138;2022-11-15T05:07:26;100217.78;;;11.95;62.06
12182;BME280;6154;51.550;12.138;2022-11-15T05:10:32;100216.06;;;11.94;62.02
12182;BME280;6154;51.550;12.138;2022-11-15T05:13:39;100210.94;;;11.91;61.98
12182;BME280;6154;51.550;12.138;2022-11-15T05:16:44;100207.66;;;11.88;61.92
12182;BME280;6154;51.550;12.138;2022-11-15T05:19:49;100208.59;;;11.87;62.00
12182;BME280;6154;51.550;12.138;2022-11-15T05:22:56;100204.44;;;11.83;62.05
12182;BME280;6154;51.550;12.138;2022-11-15T05:26:01;100204.53;;;11.81;62.29
12182;BME280;6154;51.550;12.138;2022-11-15T05:29:14;100204.34;;;11.84;62.33
12182;BME280;6154;51.550;12.138;2022-11-15T05:32:20;100205.53;;;11.78;62.53
12182;BME280;6154;51.550;12.138;2022-11-15T05:35:29;100203.66;;;11.80;62.50
12182;BME280;6154;51.550;12.138;2022-11-15T05:38:36;100206.22;;;11.82;62.57
12182;BME280;6154;51.550;12.138;2022-11-15T05:41:43;100202.81;;;11.80;62.42
12182;BME280;6154;51.550;12.138;2022-11-15T05:44:50;100194.94;;;11.78;62.60
12182;BME280;6154;51.550;12.138;2022-11-15T05:47:58;100195.78;;;11.79;62.58
12182;BME280;6154;51.550;12.138;2022-11-15T05:51:06;100201.97;;;11.79;62.62
12182;BME280;6154;51.550;12.138;2022-11-15T05:54:12;100194.94;;;11.78;62.72
12182;BME280;6154;51.550;12.138;2022-11-15T05:57:18;100192.22;;;11.80;62.72
12182;BME280;6154;51.550;12.138;2022-11-15T06:00:25;100190.31;;;11.82;62.56
12182;BME280;6154;51.550;12.138;2022-11-15T06:03:31;100189.47;;;11.82;62.45
12182;BME280;6154;51.550;12.138;2022-11-15T06:06:37;100194.78;;;11.82;62.38
12182;BME280;6154;51.550;12.138;2022-11-15T06:09:42;100189.41;;;11.83;62.22
12182;BME280;6154;51.550;12.138;2022-11-15T06:12:56;100194.78;;;11.82;62.19
12182;BME280;6154;51.550;12.138;2022-11-15T06:16:03;100199.22;;;11.81;62.24
12182;BME280;6154;51.550;12.138;2022-11-15T06:19:08;100194.09;;;11.78;62.01
12182;BME280;6154;51.550;12.138;2022-11-15T06:22:14;100201.28;;;11.76;62.05
12182;BME280;6154;51.550;12.138;2022-11-15T06:25:19;100201.41;;;11.74;61.91
12182;BME280;6154;51.550;12.138;2022-11-15T06:28:28;100197.06;;;11.73;61.88
12182;BME280;6154;51.550;12.138;2022-11-15T06:31:35;100203.31;;;11.72;61.94
12182;BME280;6154;51.550;12.138;2022-11-15T06:34:41;100204.16;;;11.73;61.95
12182;BME280;6154;51.550;12.138;2022-11-15T06:37:47;100196.19;;;11.73;62.05
12182;BME280;6154;51.550;12.138;2022-11-15T06:40:52;100201.50;;;11.73;62.17
12182;BME280;6154;51.550;12.138;2022-11-15T06:43:57;100204.91;;;11.75;62.35
12182;BME280;6154;51.550;12.138;2022-11-15T06:47:04;100203.00;;;11.77;62.39
12182;BME280;6154;51.550;12.138;2022-11-15T06:50:10;100210.59;;;11.83;62.34
12182;BME280;6154;51.550;12.138;2022-11-15T06:53:15;100210.41;;;11.86;62.20
12182;BME280;6154;51.550;12.138;2022-11-15T06:56:21;100212.09;;;11.87;62.12
12182;BME280;6154;51.550;12.138;2022-11-15T06:59:26;100218.91;;;11.91;62.13
12182;BME280;6154;51.550;12.138;2022-11-15T07:02:33;100216.06;;;11.94;62.20
12182;BME280;6154;51.550;12.138;2022-11-15T07:05:38;100222.88;;;11.98;62.21
12182;BME280;6154;51.550;12.138;2022-11-15T07:08:44;100232.12;;;12.05;62.21
12182;BME280;6154;51.550;12.138;2022-11-15T07:11:50;100226.34;;;12.13;62.02
12182;BME280;6154;51.550;12.138;2022-11-15T07:14:55;100236.44;;;12.21;61.84
12182;BME280;6154;51.550;12.138;2022-11-15T07:18:02;100231.59;;;12.27;61.76
12182;BME280;6154;51.550;12.138;2022-11-15T07:21:10;100238.31;;;12.33;61.75
12182;BME280;6154;51.550;12.138;2022-11-15T07:24:15;100233.44;;;12.40;61.69
12182;BME280;6154;51.550;12.138;2022-11-15T07:27:21;100237.63;;;12.44;61.73
12182;BME280;6154;51.550;12.138;2022-11-15T07:30:27;100239.72;;;12.51;61.93
12182;BME280;6154;51.550;12.138;2022-11-15T07:33:34;100236.69;;;12.57;61.61
12182;BME280;6154;51.550;12.138;2022-11-15T07:36:40;100235.88;;;12.70;61.53
12182;BME280;6154;51.550;12.138;2022-11-15T07:39:46;100231.44;;;12.83;61.63
12182;BME280;6154;51.550;12.138;2022-11-15T07:42:51;100238.78;;;12.92;61.69
12182;BME280;6154;51.550;12.138;2022-11-15T07:46:04;100229.12;;;13.04;61.61
12182;BME280;6154;51.550;12.138;2022-11-15T07:49:14;100236.38;;;13.14;61.65
12182;BME280;6154;51.550;12.138;2022-11-15T07:52:20;100232.16;;;13.25;61.60
12182;BME280;6154;51.550;12.138;2022-11-15T07:55:27;100229.78;;;13.33;61.59
12182;BME280;6154;51.550;12.138;2022-11-15T07:58:33;100230.87;;;13.43;61.42
12182;BME280;6154;51.550;12.138;2022-11-15T08:01:39;100225.97;;;13.49;61.53
12182;BME280;6154;51.550;12.138;2022-11-15T08:04:46;100227.25;;;13.57;61.63
12182;BME280;6154;51.550;12.138;2022-11-15T08:07:54;100219.69;;;13.63;61.29
12182;BME280;6154;51.550;12.138;2022-11-15T08:11:00;100220.94;;;13.70;61.37
12182;BME280;6154;51.550;12.138;2022-11-15T08:14:06;100221.78;;;13.84;61.37
12182;BME280;6154;51.550;12.138;2022-11-15T08:17:12;100217.50;;;13.94;61.26
12182;BME280;6154;51.550;12.138;2022-11-15T08:20:19;100211.50;;;14.03;61.13
12182;BME280;6154;51.550;12.138;2022-11-15T08:23:24;100220.50;;;14.13;61.19
12182;BME280;6154;51.550;12.138;2022-11-15T08:26:30;100214.59;;;14.21;61.12
12182;BME280;6154;51.550;12.138;2022-11-15T08:29:36;100216.47;;;14.31;61.03
12182;BME280;6154;51.550;12.138;2022-11-15T08:32:41;100211.44;;;14.39;61.17
12182;BME280;6154;51.550;12.138;2022-11-15T08:35:48;100206.31;;;14.49;60.97
12182;BME280;6154;51.550;12.138;2022-11-15T08:38:53;100215.19;;;14.61;61.09
12182;BME280;6154;51.550;12.138;2022-11-15T08:41:59;100211.62;;;14.73;60.84
12182;BME280;6154;51.550;12.138;2022-11-15T08:45:06;100204.84;;;14.80;60.46
12182;BME280;6154;51.550;12.138;2022-11-15T08:48:11;100197.50;;;14.95;60.72
12182;BME280;6154;51.550;12.138;2022-11-15T08:51:18;100194.59;;;15.09;60.66
12182;BME280;6154;51.550;12.138;2022-11-15T08:54:24;100196.69;;;15.17;60.48
12182;BME280;6154;51.550;12.138;2022-11-15T08:57:30;100201.06;;;15.29;60.40
12182;BME280;6154;51.550;12.138;2022-11-15T09:00:35;100184.84;;;15.43;60.35
12182;BME280;6154;51.550;12.138;2022-11-15T09:03:41;100198.16;;;15.55;59.91
12182;BME280;6154;51.550;12.138;2022-11-15T09:06:48;100191.16;;;15.65;59.86
12182;BME280;6154;51.550;12.138;2022-11-15T09:09:54;100185.94;;;15.74;60.03
12182;BME280;6154;51.550;12.138;2022-11-15T09:13:00;100190.00;;;15.90;59.71
12182;BME280;6154;51.550;12.138;2022-11-15T09:16:06;100188.41;;;15.98;59.85
12182;BME280;6154;51.550;12.138;2022-11-15T09:19:12;100191.09;;;15.98;59.12
12182;BME280;6154;51.550;12.138;2022-11-15T09:22:20;100187.62;;;16.19;59.71
12182;BME280;6154;51.550;12.138;2022-11-15T09:25:26;100187.69;;;16.39;59.51
12182;BME280;6154;51.550;12.138;2022-11-15T09:28:32;100189.47;;;16.50;59.29
12182;BME280;6154;51.550;12.138;2022-11-15T09:31:38;100184.53;;;16.66;59.11
12182;BME280;6154;51.550;12.138;2022-11-15T09:34:44;100177.47;;;16.77;58.93
12182;BME280;6154;51.550;12.138;2022-11-15T09:37:51;100180.06;;;16.88;58.88
12182;BME280;6154;51.550;12.138;2022-11-15T09:41:17;100181.53;;;17.02;58.67
12182;BME280;6154;51.550;12.138;2022-11-15T09:44:48;100182.06;;;17.16;57.47
12182;BME280;6154;51.550;12.138;2022-11-15T09:48:30;100180.19;;;17.38;57.19
12182;BME280;6154;51.550;12.138;2022-11-15T09:51:26;100173.94;;;17.58;57.01
12182;BME280;6154;51.550;12.138;2022-11-15T09:54:25;100176.63;;;17.58;57.45
12182;BME280;6154;51.550;12.138;2022-11-15T09:57:43;100169.66;;;17.76;57.73
12182;BME280;6154;51.550;12.138;2022-11-15T10:00:35;100173.63;;;17.92;56.88
12182;BME280;6154;51.550;12.138;2022-11-15T10:03:34;100172.09;;;17.99;57.29
12182;BME280;6154;51.550;12.138;2022-11-15T10:06:24;100166.47;;;18.12;57.49
12182;BME280;6154;51.550;12.138;2022-11-15T10:09:15;100158.47;;;18.21;57.65
12182;BME280;6154;51.550;12.138;2022-11-15T10:12:10;100162.56;;;18.25;56.80
12182;BME280;6154;51.550;12.138;2022-11-15T10:15:02;100158.06;;;18.35;56.97
12182;BME280;6154;51.550;12.138;2022-11-15T10:18:06;100155.94;;;18.39;56.84
12182;BME280;6154;51.550;12.138;2022-11-15T10:20:58;100153.81;;;18.43;55.18
12182;BME280;6154;51.550;12.138;2022-11-15T10:23:45;100146.91;;;18.59;56.77
12182;BME280;6154;51.550;12.138;2022-11-15T10:26:32;100145.78;;;18.72;56.99
12182;BME280;6154;51.550;12.138;2022-11-15T10:29:21;100145.91;;;18.80;57.06
12182;BME280;6154;51.550;12.138;2022-11-15T10:32:13;100135.84;;;18.91;56.69
12182;BME280;6154;51.550;12.138;2022-11-15T10:35:16;100132.94;;;18.85;56.76
12182;BME280;6154;51.550;12.138;2022-11-15T10:38:05;100128.84;;;18.71;54.37
12182;BME280;6154;51.550;12.138;2022-11-15T10:41:06;100116.00;;;18.84;56.38
12182;BME280;6154;51.550;12.138;2022-11-15T10:44:07;100113.16;;;18.86;54.42
12182;BME280;6154;51.550;12.138;2022-11-15T10:50:30;100101.25;;;18.98;53.11
12182;BME280;6154;51.550;12.138;2022-11-15T10:53:23;100099.41;;;18.99;54.76
12182;BME280;6154;51.550;12.138;2022-11-15T10:56:12;100108.19;;;18.91;55.15
12182;BME280;6154;51.550;12.138;2022-11-15T10:59:01;100098.13;;;19.03;55.96
12182;BME280;6154;51.550;12.138;2022-11-15T11:01:48;100097.69;;;19.07;55.89
12182;BME280;6154;51.550;12.138;2022-11-15T11:04:49;100100.72;;;19.22;55.79
12182;BME280;6154;51.550;12.138;2022-11-15T11:07:38;100099.84;;;19.31;54.09
12182;BME280;6154;51.550;12.138;2022-11-15T11:10:26;100093.47;;;19.32;55.01
12182;BME280;6154;51.550;12.138;2022-11-15T11:13:35;100095.59;;;19.38;55.26
12182;BME280;6154;51.550;12.138;2022-11-15T11:16:42;100083.78;;;19.49;55.43
12182;BME280;6154;51.550;12.138;2022-11-15T11:19:53;100082.62;;;19.51;52.47
12182;BME280;6154;51.550;12.138;2022-11-15T11:22:54;100083.09;;;19.57;53.33
12182;BME280;6154;51.550;12.138;2022-11-15T11:25:50;100080.72;;;19.71;53.71
12182;BME280;6154;51.550;12.138;2022-11-15T11:28:32;100071.06;;;19.78;54.53
12182;BME280;6154;51.550;12.138;2022-11-15T11:31:17;100067.22;;;19.81;53.45
12182;BME280;6154;51.550;12.138;2022-11-15T11:33:57;100055.88;;;19.87;53.19
12182;BME280;6154;51.550;12.138;2022-11-15T11:36:32;100057.63;;;19.78;54.05
12182;BME280;6154;51.550;12.138;2022-11-15T11:39:21;100053.41;;;19.76;54.20
12182;BME280;6154;51.550;12.138;2022-11-15T11:41:59;100057.16;;;19.83;52.28
12182;BME280;6154;51.550;12.138;2022-11-15T11:44:35;100059.66;;;19.94;53.41
12182;BME280;6154;51.550;12.138;2022-11-15T11:47:10;100048.94;;;20.02;53.66
12182;BME280;6154;51.550;12.138;2022-11-15T11:49:43;100043.56;;;20.20;54.20
12182;BME280;6154;51.550;12.138;2022-11-15T11:52:15;100044.72;;;20.18;53.76
12182;BME280;6154;51.550;12.138;2022-11-15T11:55:02;100045.72;;;20.34;54.09
12182;BME280;6154;51.550;12.138;2022-11-15T11:57:38;100040.22;;;20.44;52.61
12182;BME280;6154;51.550;12.138;2022-11-15T12:00:18;100047.53;;;20.52;53.47
12182;BME280;6154;51.550;12.138;2022-11-15T12:03:04;100052.50;;;20.64;53.12
12182;BME280;6154;51.550;12.138;2022-11-15T12:05:39;100033.50;;;20.66;51.52
12182;BME280;6154;51.550;12.138;2022-11-15T12:08:23;100020.97;;;20.75;53.33
12182;BME280;6154;51.550;12.138;2022-11-15T12:11:00;100017.31;;;20.92;51.56
12182;BME280;6154;51.550;12.138;2022-11-15T12:13:33;100010.47;;;20.98;53.27
12182;BME280;6154;51.550;12.138;2022-11-15T12:16:10;100010.56;;;21.22;53.88
12182;BME280;6154;51.550;12.138;2022-11-15T12:18:41;100012.91;;;21.17;52.71
12182;BME280;6154;51.550;12.138;2022-11-15T12:21:16;100012.84;;;21.35;53.56
12182;BME280;6154;51.550;12.138;2022-11-15T12:23:58;100007.28;;;21.44;53.38
12182;BME280;6154;51.550;12.138;2022-11-15T12:26:35;100004.94;;;21.49;52.88
12182;BME280;6154;51.550;12.138;2022-11-15T12:29:11;100000.06;;;21.45;51.95
12182;BME280;6154;51.550;12.138;2022-11-15T12:31:42;99993.97;;;21.43;50.47
12182;BME280;6154;51.550;12.138;2022-11-15T12:34:29;99998.72;;;21.49;52.46
12182;BME280;6154;51.550;12.138;2022-11-15T12:36:58;99994.66;;;21.53;52.44
12182;BME280;6154;51.550;12.138;2022-11-15T12:40:04;99989.28;;;21.53;52.53
12182;BME280;6154;51.550;12.138;2022-11-15T12:42:40;99987.78;;;21.59;49.49
12182;BME280;6154;51.550;12.138;2022-11-15T12:45:25;99982.22;;;21.60;50.40
12182;BME280;6154;51.550;12.138;2022-11-15T12:47:56;99972.78;;;21.64;49.69
12182;BME280;6154;51.550;12.138;2022-11-15T12:50:55;99969.78;;;21.67;52.26
12182;BME280;6154;51.550;12.138;2022-11-15T12:53:29;99974.00;;;21.70;49.15
12182;BME280;6154;51.550;12.138;2022-11-15T12:56:23;99969.09;;;21.57;50.85
12182;BME280;6154;51.550;12.138;2022-11-15T12:58:55;99964.22;;;21.69;49.22
12182;BME280;6154;51.550;12.138;2022-11-15T13:01:57;99961.03;;;21.65;51.11
12182;BME280;6154;51.550;12.138;2022-11-15T13:04:27;99955.47;;;21.59;49.43
12182;BME280;6154;51.550;12.138;2022-11-15T13:06:59;99962.91;;;21.65;51.83
12182;BME280;6154;51.550;12.138;2022-11-15T13:09:53;99964.22;;;21.69;51.66
12182;BME280;6154;51.550;12.138;2022-11-15T13:12:51;99956.16;;;21.69;48.64
12182;BME280;6154;51.550;12.138;2022-11-15T13:15:56;99951.94;;;21.58;49.01
12182;BME280;6154;51.550;12.138;2022-11-15T13:18:35;99949.06;;;21.51;49.89
12182;BME280;6154;51.550;12.138;2022-11-15T13:21:17;99946.56;;;21.58;51.71
12182;BME280;6154;51.550;12.138;2022-11-15T13:24:10;99953.44;;;21.61;51.98
12182;BME280;6154;51.550;12.138;2022-11-15T13:26:40;99946.38;;;21.68;50.87
12182;BME280;6154;51.550;12.138;2022-11-15T13:29:16;99948.22;;;21.59;51.72
12182;BME280;6154;51.550;12.138;2022-11-15T13:31:47;99946.88;;;21.63;50.58
12182;BME280;6154;51.550;12.138;2022-11-15T13:34:24;99946.88;;;21.63;51.53
12182;BME280;6154;51.550;12.138;2022-11-15T13:37:28;99950.56;;;21.54;50.30
12182;BME280;6154;51.550;12.138;2022-11-15T13:40:15;99943.00;;;21.49;49.18
12182;BME280;6154;51.550;12.138;2022-11-15T13:42:46;99941.81;;;21.44;49.69
12182;BME280;6154;51.550;12.138;2022-11-15T13:45:16;99945.84;;;21.40;51.67
12182;BME280;6154;51.550;12.138;2022-11-15T13:47:53;99931.22;;;21.42;51.47
12182;BME280;6154;51.550;12.138;2022-11-15T13:50:25;99932.37;;;21.40;50.75
12182;BME280;6154;51.550;12.138;2022-11-15T13:52:57;99940.81;;;21.37;51.37
12182;BME280;6154;51.550;12.138;2022-11-15T13:55:27;99940.13;;;21.35;51.09
12182;BME280;6154;51.550;12.138;2022-11-15T13:57:58;99932.72;;;21.37;51.54
12182;BME280;6154;51.550;12.138;2022-11-15T14:00:36;99936.44;;;21.36;51.48
12182;BME280;6154;51.550;12.138;2022-11-15T14:03:15;99924.81;;;21.35;50.52
12182;BME280;6154;51.550;12.138;2022-11-15T14:05:46;99921.28;;;21.35;50.92
12182;BME280;6154;51.550;12.138;2022-11-15T14:08:29;99914.38;;;21.32;51.64
12182;BME280;6154;51.550;12.138;2022-11-15T14:11:14;99910.84;;;21.32;51.60
12182;BME280;6154;51.550;12.138;2022-11-15T14:14:03;99910.84;;;21.32;50.40
12182;BME280;6154;51.550;12.138;2022-11-15T14:16:34;99912.19;;;21.28;50.76
12182;BME280;6154;51.550;12.138;2022-11-15T14:19:06;99902.37;;;21.18;51.63
12182;BME280;6154;51.550;12.138;2022-11-15T14:21:35;99901.00;;;21.06;51.66
12182;BME280;6154;51.550;12.138;2022-11-15T14:24:14;99894.78;;;20.98;51.79
12182;BME280;6154;51.550;12.138;2022-11-15T14:26:43;99896.25;;;20.92;51.11
12182;BME280;6154;51.550;12.138;2022-11-15T14:29:22;99900.25;;;20.80;51.91
12182;BME280;6154;51.550;12.138;2022-11-15T14:31:51;99898.72;;;20.69;51.05
12182;BME280;6154;51.550;12.138;2022-11-15T14:34:21;99895.09;;;20.52;51.83
12182;BME280;6154;51.550;12.138;2022-11-15T14:36:49;99892.00;;;20.39;52.17
12182;BME280;6154;51.550;12.138;2022-11-15T14:39:18;99892.44;;;20.26;52.25
12182;BME280;6154;51.550;12.138;2022-11-15T14:41:46;99894.87;;;20.12;52.07
12182;BME280;6154;51.550;12.138;2022-11-15T14:44:16;99888.03;;;19.91;52.08
12182;BME280;6154;51.550;12.138;2022-11-15T14:47:18;99890.22;;;19.70;52.34
12182;BME280;6154;51.550;12.138;2022-11-15T14:49:47;99878.63;;;19.51;52.56
12182;BME280;6154;51.550;12.138;2022-11-15T14:52:25;99875.81;;;19.35;52.68
12182;BME280;6154;51.550;12.138;2022-11-15T14:55:00;99868.31;;;19.21;52.73
12182;BME280;6154;51.550;12.138;2022-11-15T14:57:29;99870.38;;;19.09;53.23
12182;BME280;6154;51.550;12.138;2022-11-15T14:59:58;99868.75;;;18.99;53.17
12182;BME280;6154;51.550;12.138;2022-11-15T15:02:38;99874.78;;;18.83;53.34
12182;BME280;6154;51.550;12.138;2022-11-15T15:05:16;99866.44;;;18.68;53.63
12182;BME280;6154;51.550;12.138;2022-11-15T15:07:45;99863.22;;;18.55;53.69
12182;BME280;6154;51.550;12.138;2022-11-15T15:10:16;99862.72;;;18.42;53.93
12182;BME280;6154;51.550;12.138;2022-11-15T15:13:05;99866.91;;;18.26;53.84
12182;BME280;6154;51.550;12.138;2022-11-15T15:15:35;99867.25;;;18.04;53.93
12182;BME280;6154;51.550;12.138;2022-11-15T15:18:04;99861.25;;;17.83;54.31
12182;BME280;6154;51.550;12.138;2022-11-15T15:20:38;99861.13;;;17.65;54.68
12182;BME280;6154;51.550;12.138;2022-11-15T15:23:14;99847.03;;;17.53;54.91
12182;BME280;6154;51.550;12.138;2022-11-15T15:25:43;99858.34;;;17.47;54.96
12182;BME280;6154;51.550;12.138;2022-11-15T15:28:13;99851.72;;;17.32;54.74
12182;BME280;6154;51.550;12.138;2022-11-15T15:30:41;99851.47;;;17.15;54.93
12182;BME280;6154;51.550;12.138;2022-11-15T15:33:10;99843.16;;;17.09;55.09
12182;BME280;6154;51.550;12.138;2022-11-15T15:35:39;99840.16;;;17.02;55.08
12182;BME280;6154;51.550;12.138;2022-11-15T15:38:09;99840.06;;;16.94;55.26